createdAt,value
2023-05-14T00:00:44.549Z,73.6872
2023-05-14T00:01:46.942Z,76.5768
2023-05-14T00:02:49.287Z,77.0682
2023-05-14T00:03:51.695Z,66.5929
2023-05-14T00:04:53.897Z,75.9508
2023-05-14T00:05:56.238Z,72.7912
2023-05-14T00:06:58.579Z,73.4121
2023-05-14T00:08:00.921Z,75.1501
2023-05-14T00:09:03.258Z,78.7992
2023-05-14T00:10:05.605Z,75.2274
2023-05-14T00:11:08.047Z,69.2811
2023-05-14T00:12:10.304Z,72.6817
2023-05-14T00:13:12.591Z,75.4054
2023-05-14T00:14:14.946Z,76.1570
2023-05-14T00:15:17.270Z,72.2188
2023-05-14T00:16:19.662Z,69.8514
2023-05-14T00:17:21.975Z,72.1762
2023-05-14T00:18:24.312Z,67.6190
2023-05-14T00:19:26.717Z,65.7191
2023-05-14T00:20:28.956Z,64.9545
2023-05-14T00:21:31.355Z,64.0303
2023-05-14T00:22:33.647Z,68.3778
2023-05-14T00:23:36.078Z,66.0871
2023-05-14T00:24:38.975Z,70.6870
2023-05-14T00:25:40.824Z,75.1308
2023-05-14T00:26:43.973Z,74.6048
2023-05-14T00:27:45.422Z,70.9041
2023-05-14T00:28:47.729Z,73.0210
2023-05-14T00:29:50.777Z,68.8351
2023-05-14T00:30:52.644Z,69.7396
2023-05-14T00:31:54.809Z,71.6333
2023-05-14T00:32:58.112Z,69.7779
2023-05-14T00:33:59.467Z,73.8629
2023-05-14T00:35:01.919Z,73.8720
2023-05-14T00:36:04.423Z,69.5012
2023-05-14T00:37:06.926Z,71.6690
2023-05-14T00:38:09.798Z,69.9814
2023-05-14T00:39:11.061Z,74.8333
2023-05-14T00:40:13.650Z,73.1431
2023-05-14T00:41:16.187Z,76.5742
2023-05-14T00:42:18.187Z,74.1534
2023-05-14T00:43:20.733Z,70.2262
2023-05-14T00:44:22.873Z,76.1526
2023-05-14T00:45:25.354Z,71.3658
2023-05-14T00:46:27.608Z,73.9957
2023-05-14T00:47:30.674Z,69.0022
2023-05-14T00:48:32.433Z,71.7138
2023-05-14T00:49:34.776Z,74.0094
2023-05-14T00:50:36.998Z,67.1039
2023-05-14T00:51:39.185Z,73.0028
2023-05-14T00:52:41.527Z,73.0781
2023-05-14T00:53:43.995Z,67.2523
2023-05-14T00:54:46.261Z,65.5432
2023-05-14T00:55:49.062Z,71.0124
2023-05-14T00:56:51.096Z,68.6821
2023-05-14T00:57:53.311Z,70.3560
2023-05-14T00:58:55.492Z,68.4854
2023-05-14T00:59:58.031Z,70.2236
2023-05-14T01:01:00.779Z,70.7634
2023-05-14T01:02:02.710Z,74.4318
2023-05-14T01:03:05.192Z,73.3998
2023-05-14T01:04:07.936Z,74.0572
2023-05-14T01:05:09.707Z,74.4849
2023-05-14T01:06:11.975Z,74.7809
2023-05-14T01:07:14.346Z,74.6114
2023-05-14T01:08:16.545Z,70.3846
2023-05-14T01:09:18.957Z,70.9146
2023-05-14T01:10:21.624Z,72.5535
2023-05-14T01:11:23.745Z,72.1543
2023-05-14T01:12:26.621Z,76.7418
2023-05-14T01:13:28.285Z,80.6268
2023-05-14T01:14:30.659Z,72.8110
2023-05-14T01:15:33.070Z,76.8885
2023-05-14T01:16:35.331Z,75.7237
2023-05-14T01:17:37.671Z,70.9824
2023-05-14T01:18:39.929Z,73.9950
2023-05-14T01:19:42.343Z,74.4529
2023-05-14T01:20:44.761Z,73.3816
2023-05-14T01:21:47.043Z,71.1281
2023-05-14T01:22:49.408Z,79.9176
2023-05-14T01:23:51.598Z,76.1464
2023-05-14T01:24:54.015Z,75.0292
2023-05-14T01:25:56.415Z,74.7040
2023-05-14T01:26:58.708Z,79.5005
2023-05-14T01:28:00.930Z,77.9450
2023-05-14T01:29:03.625Z,80.0607
2023-05-14T01:30:05.681Z,72.1868
2023-05-14T01:31:08.102Z,77.6836
2023-05-14T01:32:10.693Z,75.2762
2023-05-14T01:33:12.840Z,79.0355
2023-05-14T01:34:15.201Z,76.4906
2023-05-14T01:35:17.360Z,72.9341
2023-05-14T01:36:20.106Z,73.5719
2023-05-14T01:37:22.190Z,72.6429
2023-05-14T01:38:24.456Z,67.7705
2023-05-14T01:39:26.682Z,70.1193
2023-05-14T01:40:28.950Z,71.4572
2023-05-14T01:41:31.477Z,74.4531
2023-05-14T01:42:33.694Z,66.2824
2023-05-14T01:43:36.228Z,66.6439
2023-05-14T01:44:38.315Z,74.0014
2023-05-14T01:45:40.835Z,73.4313
2023-05-14T01:46:43.273Z,74.3827
2023-05-14T01:47:45.613Z,78.1807
2023-05-14T01:48:47.749Z,70.1169
2023-05-14T01:49:50.235Z,66.2618
2023-05-14T01:50:52.439Z,70.7305
2023-05-14T01:51:54.963Z,70.2632
2023-05-14T01:52:57.358Z,68.1550
2023-05-14T01:53:59.664Z,65.2490
2023-05-14T01:55:02.079Z,68.8048
2023-05-14T01:56:04.101Z,68.5792
2023-05-14T01:57:06.391Z,63.0426
2023-05-14T01:58:08.801Z,70.6256
2023-05-14T01:59:11.205Z,73.1390
2023-05-14T02:00:13.532Z,70.3994
2023-05-14T02:01:16.315Z,68.2804
2023-05-14T02:02:18.980Z,70.8784
2023-05-14T02:03:20.654Z,68.8100
2023-05-14T02:04:22.846Z,70.4945
2023-05-14T02:05:25.327Z,69.1368
2023-05-14T02:06:27.983Z,69.2701
2023-05-14T02:07:29.940Z,65.6223
2023-05-14T02:08:32.655Z,65.4477
2023-05-14T02:09:34.581Z,66.2778
2023-05-14T02:10:36.829Z,70.9257
2023-05-14T02:11:39.247Z,72.5212
2023-05-14T02:12:41.712Z,70.7253
2023-05-14T02:13:43.926Z,69.5704
2023-05-14T02:14:46.199Z,68.3866
2023-05-14T02:15:48.708Z,73.6928
2023-05-14T02:16:50.945Z,69.3384
2023-05-14T02:17:53.264Z,68.1313
2023-05-14T02:18:55.937Z,65.3327
2023-05-14T02:19:58.053Z,72.5283
2023-05-14T02:21:00.287Z,71.3230
2023-05-14T02:22:02.690Z,67.3119
2023-05-14T02:23:05.714Z,74.1768
2023-05-14T02:24:07.240Z,77.4678
2023-05-14T02:25:09.947Z,74.1072
2023-05-14T02:26:12.870Z,72.2546
2023-05-14T02:27:14.857Z,68.1881
2023-05-14T02:28:17.013Z,68.3576
2023-05-14T02:29:19.136Z,69.5396
2023-05-14T02:30:22.144Z,69.8024
2023-05-14T02:31:24.074Z,69.8691
2023-05-14T02:32:26.346Z,72.5582
2023-05-14T02:33:28.678Z,75.4941
2023-05-14T02:34:30.717Z,75.3113
2023-05-14T02:35:33.249Z,77.5850
2023-05-14T02:36:35.775Z,70.7637
2023-05-14T02:37:38.136Z,70.4329
2023-05-14T02:38:40.145Z,76.4989
2023-05-14T02:39:42.328Z,76.8665
2023-05-14T02:40:44.671Z,75.2669
2023-05-14T02:41:47.007Z,72.5733
2023-05-14T02:42:49.358Z,76.8059
2023-05-14T02:43:51.709Z,75.1745
2023-05-14T02:44:54.290Z,75.1253
2023-05-14T02:45:56.355Z,76.6625
2023-05-14T02:46:58.792Z,76.6219
2023-05-14T02:48:01.088Z,78.1286
2023-05-14T02:49:03.392Z,77.0886
2023-05-14T02:50:06.027Z,73.7008
2023-05-14T02:51:08.081Z,79.9437
2023-05-14T02:52:10.437Z,73.4971
2023-05-14T02:53:12.708Z,76.3957
2023-05-14T02:54:15.050Z,80.5994
2023-05-14T02:55:17.431Z,77.6711
2023-05-14T02:56:19.719Z,78.3744
2023-05-14T02:57:22.097Z,79.5853
2023-05-14T02:58:27.435Z,79.9584
2023-05-14T02:59:26.980Z,81.5956
2023-05-14T03:00:29.072Z,77.8371
2023-05-14T03:01:32.041Z,82.4456
2023-05-14T03:02:33.970Z,75.5380
2023-05-14T03:03:36.108Z,75.3547
2023-05-14T03:04:38.718Z,78.3695
2023-05-14T03:05:41.042Z,83.1021
2023-05-14T03:06:43.122Z,76.0484
2023-05-14T03:07:45.466Z,79.3074
2023-05-14T03:08:47.793Z,81.4536
2023-05-14T03:09:50.095Z,81.2906
2023-05-14T03:10:52.468Z,81.2436
2023-05-14T03:11:54.780Z,78.6971
2023-05-14T03:12:57.166Z,78.7465
2023-05-14T03:13:59.503Z,78.5347
2023-05-14T03:15:02.104Z,80.0212
2023-05-14T03:16:04.150Z,85.4781
2023-05-14T03:17:06.574Z,85.1867
2023-05-14T03:18:09.134Z,79.7544
2023-05-14T03:19:11.363Z,80.6058
2023-05-14T03:20:13.584Z,78.5848
2023-05-14T03:21:15.997Z,79.4090
2023-05-14T03:22:18.371Z,83.7376
2023-05-14T03:23:20.515Z,86.8268
2023-05-14T03:24:22.974Z,80.8839
2023-05-14T03:25:25.783Z,85.4142
2023-05-14T03:26:27.935Z,77.6041
2023-05-14T03:27:30.636Z,78.1458
2023-05-14T03:28:32.201Z,78.0064
2023-05-14T03:29:34.513Z,82.1824
2023-05-14T03:30:36.996Z,76.7740
2023-05-14T03:31:39.214Z,81.4275
2023-05-14T03:32:41.618Z,78.1628
2023-05-14T03:33:44.044Z,80.7259
2023-05-14T03:34:46.312Z,81.0029
2023-05-14T03:35:48.555Z,85.4765
2023-05-14T03:36:52.007Z,79.2851
2023-05-14T03:37:53.228Z,70.4860
2023-05-14T03:38:55.570Z,76.7119
2023-05-14T03:39:58.037Z,77.4220
2023-05-14T03:41:00.453Z,82.5963
2023-05-14T03:42:02.881Z,81.8557
2023-05-14T03:43:04.904Z,79.6784
2023-05-14T03:44:07.275Z,81.1964
2023-05-14T03:45:09.615Z,81.8405
2023-05-14T03:46:12.258Z,78.2097
2023-05-14T03:47:14.363Z,77.1559
2023-05-14T03:48:16.796Z,76.6108
2023-05-14T03:49:19.016Z,76.8029
2023-05-14T03:50:21.359Z,81.1742
2023-05-14T03:51:23.603Z,77.5094
2023-05-14T03:52:25.942Z,83.3473
2023-05-14T03:53:28.383Z,77.2547
2023-05-14T03:54:30.668Z,81.1522
2023-05-14T03:55:32.925Z,80.7915
2023-05-14T03:56:35.294Z,80.6392
2023-05-14T03:57:37.761Z,78.4820
2023-05-14T03:58:40.069Z,78.5534
2023-05-14T03:59:42.647Z,81.9992
2023-05-14T04:00:44.937Z,79.6159
2023-05-14T04:01:47.290Z,81.2479
2023-05-14T04:02:49.330Z,79.4627
2023-05-14T04:03:51.845Z,79.2262
2023-05-14T04:04:54.438Z,81.2251
2023-05-14T04:05:57.083Z,78.3864
2023-05-14T04:06:58.696Z,76.5920
2023-05-14T04:08:01.013Z,80.7690
2023-05-14T04:09:03.428Z,75.2920
2023-05-14T04:10:06.070Z,76.7518
2023-05-14T04:11:08.061Z,75.7768
2023-05-14T04:12:10.552Z,77.6822
2023-05-14T04:13:13.138Z,79.9269
2023-05-14T04:14:15.212Z,77.1089
2023-05-14T04:15:17.723Z,81.6892
2023-05-14T04:16:19.730Z,76.1902
2023-05-14T04:17:22.090Z,79.1249
2023-05-14T04:18:24.548Z,81.6454
2023-05-14T04:19:26.697Z,78.8877
2023-05-14T04:20:29.190Z,76.8273
2023-05-14T04:21:31.472Z,76.2323
2023-05-14T04:22:33.945Z,75.2924
2023-05-14T04:23:36.134Z,76.7104
2023-05-14T04:24:38.415Z,76.0761
2023-05-14T04:25:40.724Z,79.8283
2023-05-14T04:26:43.180Z,76.5818
2023-05-14T04:27:45.407Z,79.2612
2023-05-14T04:28:47.950Z,74.9448
2023-05-14T04:29:50.329Z,76.7403
2023-05-14T04:30:52.443Z,77.5867
2023-05-14T04:31:54.781Z,74.4068
2023-05-14T04:32:57.131Z,74.2802
2023-05-14T04:33:59.576Z,73.3558
2023-05-14T04:35:01.898Z,72.9509
2023-05-14T04:36:04.088Z,74.0290
2023-05-14T04:37:06.401Z,77.3370
2023-05-14T04:38:08.770Z,73.7215
2023-05-14T04:39:11.180Z,75.5681
2023-05-14T04:40:13.407Z,70.6887
2023-05-14T04:41:15.744Z,75.5338
2023-05-14T04:42:18.080Z,73.9296
2023-05-14T04:43:20.466Z,73.0304
2023-05-14T04:44:22.743Z,74.6772
2023-05-14T04:45:25.086Z,73.3256
2023-05-14T04:46:27.553Z,75.1355
2023-05-14T04:47:29.828Z,76.6350
2023-05-14T04:48:32.084Z,72.2429
2023-05-14T04:49:34.563Z,71.6531
2023-05-14T04:50:36.832Z,71.4043
2023-05-14T04:51:39.097Z,72.3613
2023-05-14T04:52:41.482Z,76.1247
2023-05-14T04:53:45.025Z,74.7471
2023-05-14T04:54:47.410Z,78.6399
2023-05-14T04:55:48.941Z,70.8602
2023-05-14T04:56:50.919Z,69.5827
2023-05-14T04:57:53.169Z,71.5005
2023-05-14T04:58:55.982Z,74.8497
2023-05-14T04:59:57.795Z,70.7572
2023-05-14T05:01:00.504Z,75.3543
2023-05-14T05:02:02.486Z,69.7703
2023-05-14T05:03:05.257Z,69.7247
2023-05-14T05:04:07.205Z,67.2745
2023-05-14T05:05:09.862Z,68.0826
2023-05-14T05:06:12.329Z,68.3033
2023-05-14T05:07:14.143Z,68.9350
2023-05-14T05:08:17.115Z,67.4540
2023-05-14T05:09:19.400Z,67.5729
2023-05-14T05:10:21.272Z,66.8565
2023-05-14T05:11:23.603Z,60.6236
2023-05-14T05:12:25.911Z,65.1897
2023-05-14T05:13:28.270Z,67.4872
2023-05-14T05:14:30.545Z,67.5271
2023-05-14T05:15:33.014Z,74.6389
2023-05-14T05:16:35.559Z,68.5166
2023-05-14T05:17:37.797Z,66.5360
2023-05-14T05:18:40.186Z,67.5001
2023-05-14T05:19:44.118Z,69.9260
2023-05-14T05:20:44.589Z,64.2980
2023-05-14T05:21:47.355Z,67.2494
2023-05-14T05:22:49.395Z,71.3255
2023-05-14T05:23:51.652Z,65.4842
2023-05-14T05:24:54.322Z,65.0552
2023-05-14T05:25:56.349Z,67.0450
2023-05-14T05:26:58.593Z,71.3230
2023-05-14T05:28:00.968Z,68.0078
2023-05-14T05:29:03.298Z,70.1965
2023-05-14T05:30:05.641Z,68.4342
2023-05-14T05:31:08.330Z,66.4500
2023-05-14T05:32:10.435Z,71.6448
2023-05-14T05:33:12.668Z,66.8880
2023-05-14T05:34:14.918Z,69.1852
2023-05-14T05:35:17.343Z,71.5870
2023-05-14T05:36:19.715Z,73.7634
2023-05-14T05:37:22.097Z,73.6407
2023-05-14T05:38:24.298Z,68.1056
2023-05-14T05:39:26.643Z,72.3692
2023-05-14T05:40:28.974Z,71.7769
2023-05-14T05:41:31.321Z,71.1754
2023-05-14T05:42:33.751Z,73.9325
2023-05-14T05:43:36.049Z,72.2308
2023-05-14T05:44:38.462Z,69.6840
2023-05-14T05:45:40.740Z,69.4191
2023-05-14T05:46:43.191Z,67.7894
2023-05-14T05:47:45.488Z,67.4153
2023-05-14T05:48:47.809Z,71.7238
2023-05-14T05:49:50.006Z,69.9856
2023-05-14T05:50:52.377Z,65.4613
2023-05-14T05:51:54.793Z,64.4078
2023-05-14T05:52:57.023Z,65.6955
2023-05-14T05:53:59.339Z,61.5733
2023-05-14T05:55:01.697Z,68.5481
2023-05-14T05:56:04.091Z,63.1008
2023-05-14T05:57:06.456Z,65.6575
2023-05-14T05:58:08.713Z,65.0601
2023-05-14T05:59:11.157Z,65.9344
2023-05-14T06:00:13.484Z,61.8561
2023-05-14T06:01:15.888Z,67.1275
2023-05-14T06:02:18.121Z,66.0417
2023-05-14T06:03:20.410Z,67.0874
2023-05-14T06:04:22.750Z,66.1323
2023-05-14T06:05:25.091Z,67.3729
2023-05-14T06:06:27.372Z,67.0722
2023-05-14T06:07:29.801Z,62.8720
2023-05-14T06:08:32.428Z,68.5673
2023-05-14T06:09:34.401Z,66.7483
2023-05-14T06:10:36.850Z,66.4856
2023-05-14T06:11:39.082Z,64.2928
2023-05-14T06:12:41.444Z,64.4070
2023-05-14T06:13:43.818Z,61.8958
2023-05-14T06:14:46.084Z,60.3345
2023-05-14T06:15:48.407Z,64.4903
2023-05-14T06:16:50.924Z,60.6582
2023-05-14T06:17:53.418Z,62.9891
2023-05-14T06:18:55.505Z,64.4655
2023-05-14T06:19:57.984Z,64.5188
2023-05-14T06:21:00.142Z,62.6541
2023-05-14T06:22:02.791Z,58.2422
2023-05-14T06:23:04.810Z,60.0159
2023-05-14T06:24:07.216Z,62.0423
2023-05-14T06:25:09.610Z,69.8891
2023-05-14T06:26:12.129Z,66.5740
2023-05-14T06:27:14.170Z,63.1057
2023-05-14T06:28:16.442Z,74.2222
2023-05-14T06:29:19.306Z,70.3034
2023-05-14T06:30:21.392Z,68.5207
2023-05-14T06:31:23.449Z,70.1430
2023-05-14T06:32:25.851Z,66.7666
2023-05-14T06:33:28.129Z,68.5702
2023-05-14T06:34:30.551Z,65.8642
2023-05-14T06:35:32.811Z,69.4541
2023-05-14T06:36:35.096Z,71.9327
2023-05-14T06:37:38.247Z,70.4856
2023-05-14T06:38:39.896Z,73.7258
2023-05-14T06:39:42.113Z,71.3931
2023-05-14T06:40:44.512Z,70.6481
2023-05-14T06:41:47.131Z,68.7329
2023-05-14T06:42:49.648Z,76.0571
2023-05-14T06:43:51.580Z,76.2374
2023-05-14T06:44:53.841Z,72.4747
2023-05-14T06:45:56.134Z,75.1103
2023-05-14T06:46:58.572Z,72.4401
2023-05-14T06:48:01.506Z,74.9319
2023-05-14T06:49:03.126Z,72.1563
2023-05-14T06:50:05.435Z,71.8784
2023-05-14T06:51:07.787Z,72.7330
2023-05-14T06:52:10.128Z,70.8936
2023-05-14T06:53:12.431Z,72.2215
2023-05-14T06:54:14.787Z,72.9047
2023-05-14T06:55:17.096Z,77.9383
2023-05-14T06:56:19.447Z,73.7345
2023-05-14T06:57:21.780Z,76.6306
2023-05-14T06:58:24.116Z,73.1055
2023-05-14T06:59:26.552Z,75.3873
2023-05-14T07:00:28.861Z,71.2434
2023-05-14T07:01:31.189Z,71.0683
2023-05-14T07:02:33.496Z,71.1089
2023-05-14T07:03:35.832Z,72.8848
2023-05-14T07:04:39.274Z,70.8464
2023-05-14T07:05:40.609Z,74.8300
2023-05-14T07:06:42.820Z,72.8476
2023-05-14T07:07:45.179Z,73.9246
2023-05-14T07:08:47.482Z,73.7684
2023-05-14T07:09:49.971Z,77.3476
2023-05-14T07:10:52.308Z,85.4299
2023-05-14T07:11:54.624Z,80.3507
2023-05-14T07:12:57.079Z,79.9334
2023-05-14T07:13:59.282Z,79.1781
2023-05-14T07:15:01.585Z,76.1922
2023-05-14T07:16:03.852Z,78.5497
2023-05-14T07:17:06.312Z,78.9127
2023-05-14T07:18:08.548Z,80.2401
2023-05-14T07:19:10.979Z,81.7390
2023-05-14T07:20:13.179Z,81.1004
2023-05-14T07:21:15.555Z,79.7473
2023-05-14T07:22:17.865Z,80.1819
2023-05-14T07:23:20.240Z,79.3759
2023-05-14T07:24:22.512Z,81.3812
2023-05-14T07:25:24.842Z,77.3472
2023-05-14T07:26:27.251Z,79.1492
2023-05-14T07:27:29.569Z,75.0496
2023-05-14T07:28:31.844Z,81.3706
2023-05-14T07:29:34.182Z,81.0115
2023-05-14T07:30:36.516Z,79.8338
2023-05-14T07:31:38.918Z,82.4356
2023-05-14T07:32:41.474Z,81.0360
2023-05-14T07:33:43.526Z,75.5344
2023-05-14T07:34:45.879Z,81.6726
2023-05-14T07:35:48.211Z,78.6971
2023-05-14T07:36:50.563Z,83.3503
2023-05-14T07:37:52.932Z,81.3283
2023-05-14T07:38:55.250Z,81.2635
2023-05-14T07:39:57.591Z,82.5690
2023-05-14T07:40:59.874Z,79.7918
2023-05-14T07:42:02.217Z,83.6062
2023-05-14T07:43:04.584Z,88.4742
2023-05-14T07:44:06.957Z,89.6020
2023-05-14T07:45:09.217Z,86.5024
2023-05-14T07:46:11.591Z,83.8006
2023-05-14T07:47:13.933Z,81.5040
2023-05-14T07:48:16.259Z,84.2019
2023-05-14T07:49:18.555Z,80.8223
2023-05-14T07:50:20.933Z,80.5219
2023-05-14T07:51:23.271Z,83.9394
2023-05-14T07:52:25.562Z,76.9875
2023-05-14T07:53:27.888Z,83.4706
2023-05-14T07:54:30.380Z,84.6530
2023-05-14T07:55:32.597Z,89.7489
2023-05-14T07:56:34.895Z,86.4872
2023-05-14T07:57:37.236Z,85.7605
2023-05-14T07:58:39.557Z,81.6295
2023-05-14T07:59:41.932Z,79.5789
2023-05-14T08:00:44.249Z,84.8411
2023-05-14T08:01:46.611Z,81.3405
2023-05-14T08:02:49.219Z,74.3186
2023-05-14T08:03:51.348Z,74.6216
2023-05-14T08:04:53.647Z,71.0986
2023-05-14T08:05:55.970Z,66.8462
2023-05-14T08:06:58.321Z,68.0993
2023-05-14T08:08:00.613Z,69.3588
2023-05-14T08:09:10.523Z,63.1607
2023-05-14T08:10:05.442Z,63.9134
2023-05-14T08:11:07.711Z,66.0758
2023-05-14T08:12:10.028Z,63.1234
2023-05-14T08:13:12.319Z,64.7612
2023-05-14T08:14:14.746Z,57.4107
2023-05-14T08:15:17.032Z,59.3964
2023-05-14T08:16:19.431Z,61.4843
2023-05-14T08:17:21.773Z,58.0816
2023-05-14T08:18:24.013Z,57.0338
2023-05-14T08:19:26.350Z,56.2734
2023-05-14T08:20:28.846Z,51.2420
2023-05-14T08:21:31.062Z,50.3862
2023-05-14T08:22:33.371Z,48.1330
2023-05-14T08:23:35.968Z,44.5439
2023-05-14T08:26:47.797Z,44.1712
2023-05-14T08:26:47.797Z,39.1506
2023-05-14T08:27:49.854Z,39.7572
2023-05-14T08:28:52.494Z,46.0338
2023-05-14T08:29:54.715Z,47.9097
2023-05-14T08:30:56.981Z,51.0516
2023-05-14T08:32:01.925Z,49.0307
2023-05-14T08:33:01.678Z,44.1376
2023-05-14T08:34:05.088Z,43.4570
2023-05-14T08:35:06.935Z,48.7127
2023-05-14T08:36:08.528Z,46.0161
2023-05-14T08:37:10.899Z,44.3437
2023-05-14T08:38:13.215Z,47.7048
2023-05-14T08:39:15.537Z,42.9717
2023-05-14T08:40:17.881Z,45.0900
2023-05-14T08:41:20.250Z,42.9275
2023-05-14T08:42:22.608Z,45.5095
2023-05-14T08:43:24.882Z,47.9192
2023-05-14T08:44:27.424Z,48.8744
2023-05-14T08:45:29.586Z,48.4322
2023-05-14T08:46:31.920Z,44.8965
2023-05-14T08:47:34.335Z,50.0073
2023-05-14T08:48:37.717Z,45.2299
2023-05-14T08:49:39.089Z,48.2549
2023-05-14T08:50:41.292Z,45.0434
2023-05-14T08:51:43.616Z,42.9519
2023-05-14T08:52:45.941Z,49.1991
2023-05-14T08:53:48.288Z,48.6594
2023-05-14T08:54:50.664Z,47.3246
2023-05-14T08:55:53.220Z,45.4643
2023-05-14T08:56:55.464Z,42.9365
2023-05-14T08:57:58.168Z,39.8374
2023-05-14T08:59:00.022Z,43.5513
2023-05-14T09:00:02.553Z,44.1942
2023-05-14T09:01:04.754Z,43.1951
2023-05-14T09:02:07.145Z,40.9696
2023-05-14T09:03:09.450Z,48.2457
2023-05-14T09:04:11.831Z,43.6292
2023-05-14T09:05:14.163Z,44.1485
2023-05-14T09:06:16.503Z,43.9857
2023-05-14T09:07:18.781Z,41.9226
2023-05-14T09:08:24.298Z,43.9990
2023-05-14T09:09:23.575Z,40.5636
2023-05-14T09:10:26.514Z,45.5763
2023-05-14T09:11:28.149Z,42.4946
2023-05-14T09:12:30.855Z,41.0811
2023-05-14T09:13:33.063Z,41.6475
2023-05-14T09:14:35.147Z,42.6871
2023-05-14T09:15:37.405Z,39.8124
2023-05-14T09:16:39.870Z,40.2708
2023-05-14T09:17:42.234Z,38.1615
2023-05-14T09:18:44.422Z,44.7062
2023-05-14T09:19:46.744Z,41.6411
2023-05-14T09:20:49.057Z,40.8197
2023-05-14T09:21:51.442Z,42.5851
2023-05-14T09:22:53.793Z,43.9486
2023-05-14T09:23:56.055Z,42.5455
2023-05-14T09:24:58.558Z,43.6581
2023-05-14T09:26:00.929Z,40.2674
2023-05-14T09:27:03.115Z,39.6919
2023-05-14T09:28:05.659Z,39.7797
2023-05-14T09:29:08.191Z,42.6490
2023-05-14T09:30:10.270Z,39.1165
2023-05-14T09:31:12.451Z,36.3849
2023-05-14T09:32:14.925Z,38.4657
2023-05-14T09:33:17.195Z,35.4767
2023-05-14T09:34:19.423Z,38.3634
2023-05-14T09:35:21.857Z,30.4676
2023-05-14T09:36:24.164Z,29.1703
2023-05-14T09:37:26.530Z,29.8987
2023-05-14T09:38:28.790Z,33.1261
2023-05-14T09:39:31.270Z,33.6675
2023-05-14T09:40:33.633Z,32.8013
2023-05-14T09:41:35.831Z,22.8012
2023-05-14T09:42:38.160Z,23.0124
2023-05-14T09:43:40.491Z,28.9766
2023-05-14T09:44:42.986Z,28.6357
2023-05-14T09:45:45.179Z,29.2279
2023-05-14T09:46:47.578Z,30.4720
2023-05-14T09:47:49.982Z,27.2295
2023-05-14T09:48:52.218Z,27.4882
2023-05-14T09:49:54.522Z,28.8089
2023-05-14T09:50:56.880Z,29.5051
2023-05-14T09:51:59.223Z,27.8827
2023-05-14T09:53:01.541Z,27.8865
2023-05-14T09:54:03.955Z,32.4506
2023-05-14T09:55:06.202Z,29.9774
2023-05-14T09:56:08.541Z,30.0140
2023-05-14T09:57:10.949Z,29.5638
2023-05-14T09:58:13.241Z,33.1811
2023-05-14T09:59:15.547Z,29.8426
2023-05-14T10:00:17.872Z,27.3593
2023-05-14T10:01:20.308Z,31.5384
2023-05-14T10:02:22.577Z,31.9135
2023-05-14T10:03:24.981Z,27.4986
2023-05-14T10:04:27.411Z,29.7293
2023-05-14T10:05:29.585Z,32.2820
2023-05-14T10:06:32.109Z,32.7434
2023-05-14T10:07:34.260Z,31.1674
2023-05-14T10:08:36.660Z,31.7421
2023-05-14T10:09:39.447Z,32.5034
2023-05-14T10:10:46.613Z,33.4862
2023-05-14T10:11:43.782Z,31.6851
2023-05-14T10:12:46.111Z,29.9736
2023-05-14T10:13:48.329Z,36.2787
2023-05-14T10:14:50.953Z,37.0923
2023-05-14T10:15:53.172Z,36.2574
2023-05-14T10:16:55.466Z,37.3726
2023-05-14T10:17:57.764Z,35.8409
2023-05-14T10:19:00.147Z,35.2823
2023-05-14T10:20:02.422Z,38.5467
2023-05-14T10:21:04.781Z,35.5204
2023-05-14T10:22:07.728Z,37.8487
2023-05-14T10:23:09.396Z,38.8840
2023-05-14T10:24:11.724Z,41.3147
2023-05-14T10:25:14.068Z,39.5157
2023-05-14T10:26:16.513Z,38.3629
2023-05-14T10:27:18.709Z,38.7134
2023-05-14T10:28:22.265Z,39.2214
2023-05-14T10:29:23.409Z,36.0663
2023-05-14T10:30:25.955Z,40.9293
2023-05-14T10:31:28.127Z,39.4410
2023-05-14T10:32:30.413Z,40.1692
2023-05-14T10:33:32.748Z,39.0582
2023-05-14T10:34:35.273Z,42.1971
2023-05-14T10:35:37.435Z,42.9376
2023-05-14T10:36:39.788Z,41.0898
2023-05-14T10:37:42.248Z,44.0309
2023-05-14T10:38:44.448Z,42.7084
2023-05-14T10:39:46.841Z,41.9084
2023-05-14T10:40:51.602Z,42.5431
2023-05-14T10:41:51.482Z,37.7703
2023-05-14T10:42:53.884Z,40.3413
2023-05-14T10:43:56.134Z,36.8301
2023-05-14T10:44:58.722Z,38.4459
2023-05-14T10:46:01.021Z,40.3885
2023-05-14T10:47:03.678Z,37.7290
2023-05-14T10:48:10.286Z,34.3450
2023-05-14T10:49:08.022Z,34.7190
2023-05-14T10:50:11.145Z,34.5716
2023-05-14T10:51:12.832Z,33.0251
2023-05-14T10:52:15.158Z,32.0705
2023-05-14T10:53:17.688Z,31.5134
2023-05-14T10:54:19.676Z,28.0642
2023-05-14T10:55:21.999Z,29.0463
2023-05-14T10:56:24.514Z,28.3893
2023-05-14T10:57:26.739Z,28.4539
2023-05-14T10:58:29.405Z,29.5894
2023-05-14T10:59:31.166Z,28.9572
2023-05-14T11:00:33.517Z,28.8606
2023-05-14T11:01:36.006Z,28.6566
2023-05-14T11:02:38.315Z,25.4443
2023-05-14T11:03:40.848Z,26.5904
2023-05-14T11:04:42.889Z,24.6246
2023-05-14T11:05:45.259Z,22.6490
2023-05-14T11:06:47.646Z,23.3271
2023-05-14T11:07:49.860Z,24.0238
2023-05-14T11:08:52.226Z,23.1157
2023-05-14T11:09:54.549Z,24.1908
2023-05-14T11:10:56.877Z,25.3383
2023-05-14T11:11:59.325Z,23.7058
2023-05-14T11:13:01.558Z,21.5714
2023-05-14T11:14:03.899Z,22.1742
2023-05-14T11:15:06.418Z,20.6218
2023-05-14T11:16:21.894Z,18.7455
2023-05-14T11:17:11.303Z,18.6250
2023-05-14T11:18:13.316Z,15.7264
2023-05-14T11:19:15.861Z,18.9489
2023-05-14T11:20:18.031Z,20.3835
2023-05-14T11:21:20.395Z,20.2304
2023-05-14T11:22:22.823Z,18.2203
2023-05-14T11:23:24.917Z,19.3942
2023-05-14T11:24:27.268Z,22.5259
2023-05-14T11:25:29.605Z,19.3997
2023-05-14T11:26:32.063Z,18.3010
2023-05-14T11:27:34.315Z,15.1164
2023-05-14T11:28:36.720Z,12.9915
2023-05-14T11:29:38.962Z,12.4772
2023-05-14T11:30:41.299Z,13.3994
2023-05-14T11:31:43.662Z,14.1261
2023-05-14T11:32:46.259Z,12.7230
2023-05-14T11:33:48.328Z,13.9546
2023-05-14T11:34:50.658Z,13.4299
2023-05-14T11:35:53.091Z,12.9422
2023-05-14T11:36:55.343Z,15.7622
2023-05-14T11:37:57.669Z,13.6713
2023-05-14T11:39:00.050Z,13.7526
2023-05-14T11:40:02.417Z,15.1233
2023-05-14T11:41:04.685Z,11.8905
2023-05-14T11:42:07.022Z,14.1787
2023-05-14T11:43:09.371Z,12.5424
2023-05-14T11:44:11.764Z,13.4866
2023-05-14T11:45:14.074Z,14.6865
2023-05-14T11:46:16.421Z,15.6721
2023-05-14T11:47:18.754Z,14.1008
2023-05-14T11:48:21.415Z,13.4861
2023-05-14T11:49:23.481Z,14.7360
2023-05-14T11:50:25.911Z,15.7733
2023-05-14T11:51:28.168Z,15.1704
2023-05-14T11:52:30.464Z,15.8719
2023-05-14T11:53:32.822Z,18.2367
2023-05-14T11:54:35.159Z,22.7930
2023-05-14T11:55:37.601Z,21.9292
2023-05-14T11:56:39.838Z,22.8214
2023-05-14T11:57:42.297Z,22.6091
2023-05-14T11:58:44.480Z,27.1396
2023-05-14T11:59:46.827Z,25.1569
2023-05-14T12:00:49.198Z,27.1329
2023-05-14T12:01:51.504Z,24.9805
2023-05-14T12:02:53.941Z,27.0100
2023-05-14T12:03:56.241Z,25.4048
2023-05-14T12:04:58.533Z,25.1500
2023-05-14T12:06:00.915Z,26.0286
2023-05-14T12:07:03.229Z,28.3307
2023-05-14T12:08:05.624Z,27.6579
2023-05-14T12:09:07.916Z,29.8228
2023-05-14T12:10:10.239Z,27.6929
2023-05-14T12:11:12.601Z,31.2670
2023-05-14T12:12:14.969Z,31.7618
2023-05-14T12:13:17.349Z,30.5185
2023-05-14T12:14:19.698Z,30.3622
2023-05-14T12:15:22.024Z,29.8993
2023-05-14T12:16:25.010Z,33.0136
2023-05-14T12:17:27.208Z,35.4885
2023-05-14T12:18:29.161Z,35.2200
2023-05-14T12:19:31.407Z,36.9771
2023-05-14T12:20:33.734Z,37.4558
2023-05-14T12:21:36.232Z,35.1039
2023-05-14T12:22:41.575Z,37.1996
2023-05-14T12:23:42.823Z,38.3986
2023-05-14T12:24:45.600Z,39.3605
2023-05-14T12:25:46.319Z,40.5699
2023-05-14T12:26:48.308Z,40.8798
2023-05-14T12:27:50.762Z,42.3457
2023-05-14T12:28:52.634Z,42.0148
2023-05-14T12:29:54.956Z,41.4529
2023-05-14T12:31:19.850Z,42.8035
2023-05-14T12:31:59.791Z,38.1254
2023-05-14T12:33:02.300Z,45.4377
2023-05-14T12:34:04.743Z,43.9246
2023-05-14T12:35:07.006Z,47.1848